sensor_id;sensor_type;location;lat;lon;timestamp;P1;durP1;ratioP1;P2;durP2;ratioP2
43114;SDS011;28727;50.068;14.452;2022-08-01T00:00:41;101.30;;;96.57;;
43114;SDS011;28727;50.068;14.452;2022-08-01T00:03:13;104.77;;;99.87;;
43114;SDS011;28727;50.068;14.452;2022-08-01T00:05:44;105.80;;;100.90;;
43114;SDS011;28727;50.068;14.452;2022-08-01T00:08:17;105.60;;;100.63;;
43114;SDS011;28727;50.068;14.452;2022-08-01T00:10:49;107.90;;;102.90;;
43114;SDS011;28727;50.068;14.452;2022-08-01T00:13:21;106.23;;;101.23;;
43114;SDS011;28727;50.068;14.452;2022-08-01T00:15:52;109.17;;;104.03;;
43114;SDS011;28727;50.068;14.452;2022-08-01T00:18:24;101.63;;;96.90;;
43114;SDS011;28727;50.068;14.452;2022-08-01T00:20:56;105.33;;;100.37;;
43114;SDS011;28727;50.068;14.452;2022-08-01T00:23:27;105.50;;;100.47;;
43114;SDS011;28727;50.068;14.452;2022-08-01T00:25:59;104.70;;;99.83;;
43114;SDS011;28727;50.068;14.452;2022-08-01T00:28:33;104.00;;;99.03;;
43114;SDS011;28727;50.068;14.452;2022-08-01T00:31:07;104.73;;;99.90;;
43114;SDS011;28727;50.068;14.452;2022-08-01T00:33:40;108.57;;;103.53;;
43114;SDS011;28727;50.068;14.452;2022-08-01T00:36:15;102.03;;;97.13;;
43114;SDS011;28727;50.068;14.452;2022-08-01T00:38:47;106.87;;;101.77;;
43114;SDS011;28727;50.068;14.452;2022-08-01T00:41:21;102.23;;;97.47;;
43114;SDS011;28727;50.068;14.452;2022-08-01T00:43:53;97.20;;;92.63;;
43114;SDS011;28727;50.068;14.452;2022-08-01T00:46:25;103.30;;;98.37;;
43114;SDS011;28727;50.068;14.452;2022-08-01T00:48:57;99.10;;;94.40;;
43114;SDS011;28727;50.068;14.452;2022-08-01T00:51:29;102.53;;;97.70;;
43114;SDS011;28727;50.068;14.452;2022-08-01T00:54:03;100.07;;;95.33;;
43114;SDS011;28727;50.068;14.452;2022-08-01T00:56:36;102.97;;;97.80;;
43114;SDS011;28727;50.068;14.452;2022-08-01T00:59:11;96.95;;;92.35;;
43114;SDS011;28727;50.068;14.452;2022-08-01T01:01:45;97.73;;;93.07;;
43114;SDS011;28727;50.068;14.452;2022-08-01T01:04:20;99.23;;;94.53;;
43114;SDS011;28727;50.068;14.452;2022-08-01T01:13:06;97.33;;;92.63;;
43114;SDS011;28727;50.068;14.452;2022-08-01T01:18:36;99.03;;;94.40;;
43114;SDS011;28727;50.068;14.452;2022-08-01T01:29:24;97.07;;;92.47;;
43114;SDS011;28727;50.068;14.452;2022-08-01T01:32:04;98.90;;;94.27;;
43114;SDS011;28727;50.068;14.452;2022-08-01T01:34:42;99.17;;;94.57;;
43114;SDS011;28727;50.068;14.452;2022-08-01T01:37:17;103.50;;;98.60;;
43114;SDS011;28727;50.068;14.452;2022-08-01T01:39:51;95.60;;;91.10;;
43114;SDS011;28727;50.068;14.452;2022-08-01T01:42:24;98.93;;;94.25;;
43114;SDS011;28727;50.068;14.452;2022-08-01T01:44:57;100.43;;;95.63;;
43114;SDS011;28727;50.068;14.452;2022-08-01T01:50:04;101.77;;;96.97;;
43114;SDS011;28727;50.068;14.452;2022-08-01T01:52:39;102.27;;;97.37;;
43114;SDS011;28727;50.068;14.452;2022-08-01T01:55:13;98.93;;;94.23;;
43114;SDS011;28727;50.068;14.452;2022-08-01T01:57:46;97.53;;;92.83;;
43114;SDS011;28727;50.068;14.452;2022-08-01T02:00:20;101.70;;;96.90;;
43114;SDS011;28727;50.068;14.452;2022-08-01T02:02:53;104.57;;;99.57;;
43114;SDS011;28727;50.068;14.452;2022-08-01T02:07:59;98.73;;;94.03;;
43114;SDS011;28727;50.068;14.452;2022-08-01T02:10:32;101.83;;;97.03;;
43114;SDS011;28727;50.068;14.452;2022-08-01T02:13:09;99.60;;;94.90;;
43114;SDS011;28727;50.068;14.452;2022-08-01T02:15:42;99.60;;;94.83;;
43114;SDS011;28727;50.068;14.452;2022-08-01T02:18:31;101.17;;;96.40;;
43114;SDS011;28727;50.068;14.452;2022-08-01T02:21:04;101.47;;;96.63;;
43114;SDS011;28727;50.068;14.452;2022-08-01T02:23:39;98.67;;;93.93;;
43114;SDS011;28727;50.068;14.452;2022-08-01T02:26:14;100.30;;;95.55;;
43114;SDS011;28727;50.068;14.452;2022-08-01T02:28:50;102.90;;;98.00;;
43114;SDS011;28727;50.068;14.452;2022-08-01T02:31:27;99.00;;;94.30;;
43114;SDS011;28727;50.068;14.452;2022-08-01T02:34:04;99.37;;;94.63;;
43114;SDS011;28727;50.068;14.452;2022-08-01T02:36:39;99.67;;;95.07;;
43114;SDS011;28727;50.068;14.452;2022-08-01T02:39:13;96.47;;;91.80;;
43114;SDS011;28727;50.068;14.452;2022-08-01T02:41:47;94.20;;;89.77;;
43114;SDS011;28727;50.068;14.452;2022-08-01T02:44:24;101.37;;;96.50;;
43114;SDS011;28727;50.068;14.452;2022-08-01T02:47:05;102.37;;;97.43;;
43114;SDS011;28727;50.068;14.452;2022-08-01T02:49:42;103.97;;;98.97;;
43114;SDS011;28727;50.068;14.452;2022-08-01T02:52:23;103.17;;;98.27;;
43114;SDS011;28727;50.068;14.452;2022-08-01T02:57:29;101.07;;;96.23;;
43114;SDS011;28727;50.068;14.452;2022-08-01T03:00:22;108.43;;;103.30;;
43114;SDS011;28727;50.068;14.452;2022-08-01T03:02:55;105.72;;;100.72;;
43114;SDS011;28727;50.068;14.452;2022-08-01T03:05:29;108.33;;;103.23;;
43114;SDS011;28727;50.068;14.452;2022-08-01T03:08:03;104.72;;;99.68;;
43114;SDS011;28727;50.068;14.452;2022-08-01T03:10:45;104.70;;;99.70;;
43114;SDS011;28727;50.068;14.452;2022-08-01T03:13:18;109.33;;;104.03;;
43114;SDS011;28727;50.068;14.452;2022-08-01T03:15:54;107.53;;;102.33;;
43114;SDS011;28727;50.068;14.452;2022-08-01T03:18:28;104.75;;;99.68;;
43114;SDS011;28727;50.068;14.452;2022-08-01T03:21:01;106.93;;;101.75;;
43114;SDS011;28727;50.068;14.452;2022-08-01T03:23:35;108.63;;;103.43;;
43114;SDS011;28727;50.068;14.452;2022-08-01T03:26:08;103.60;;;98.53;;
43114;SDS011;28727;50.068;14.452;2022-08-01T03:28:41;106.40;;;101.27;;
43114;SDS011;28727;50.068;14.452;2022-08-01T03:31:17;105.27;;;100.13;;
43114;SDS011;28727;50.068;14.452;2022-08-01T03:33:49;106.27;;;101.17;;
43114;SDS011;28727;50.068;14.452;2022-08-01T03:36:22;102.97;;;97.97;;
43114;SDS011;28727;50.068;14.452;2022-08-01T03:38:58;103.50;;;98.43;;
43114;SDS011;28727;50.068;14.452;2022-08-01T03:41:34;99.63;;;94.83;;
43114;SDS011;28727;50.068;14.452;2022-08-01T03:44:11;103.50;;;98.50;;
43114;SDS011;28727;50.068;14.452;2022-08-01T03:46:48;103.80;;;98.60;;
43114;SDS011;28727;50.068;14.452;2022-08-01T03:49:38;100.43;;;95.50;;
43114;SDS011;28727;50.068;14.452;2022-08-01T03:52:15;101.23;;;96.33;;
43114;SDS011;28727;50.068;14.452;2022-08-01T03:54:48;102.20;;;97.20;;
43114;SDS011;28727;50.068;14.452;2022-08-01T03:57:23;101.73;;;96.73;;
43114;SDS011;28727;50.068;14.452;2022-08-01T04:00:07;100.25;;;95.35;;
43114;SDS011;28727;50.068;14.452;2022-08-01T04:02:43;102.53;;;97.43;;
43114;SDS011;28727;50.068;14.452;2022-08-01T04:05:16;102.22;;;97.30;;
43114;SDS011;28727;50.068;14.452;2022-08-01T04:07:50;109.53;;;104.00;;
43114;SDS011;28727;50.068;14.452;2022-08-01T04:10:28;103.73;;;98.73;;
43114;SDS011;28727;50.068;14.452;2022-08-01T04:13:00;103.10;;;98.13;;
43114;SDS011;28727;50.068;14.452;2022-08-01T04:15:32;99.63;;;94.83;;
43114;SDS011;28727;50.068;14.452;2022-08-01T04:18:03;101.27;;;96.37;;
43114;SDS011;28727;50.068;14.452;2022-08-01T04:20:35;107.73;;;102.33;;
43114;SDS011;28727;50.068;14.452;2022-08-01T04:23:07;102.70;;;97.73;;
43114;SDS011;28727;50.068;14.452;2022-08-01T04:25:40;102.50;;;97.50;;
43114;SDS011;28727;50.068;14.452;2022-08-01T04:28:15;96.10;;;91.37;;
43114;SDS011;28727;50.068;14.452;2022-08-01T04:30:52;103.47;;;98.47;;
43114;SDS011;28727;50.068;14.452;2022-08-01T04:33:31;103.70;;;98.60;;
43114;SDS011;28727;50.068;14.452;2022-08-01T04:36:07;104.40;;;99.23;;
43114;SDS011;28727;50.068;14.452;2022-08-01T04:41:16;106.70;;;101.40;;
43114;SDS011;28727;50.068;14.452;2022-08-01T04:43:49;106.40;;;101.20;;
43114;SDS011;28727;50.068;14.452;2022-08-01T04:46:25;101.17;;;96.10;;
43114;SDS011;28727;50.068;14.452;2022-08-01T04:48:59;99.53;;;94.70;;
43114;SDS011;28727;50.068;14.452;2022-08-01T04:51:33;104.53;;;99.57;;
43114;SDS011;28727;50.068;14.452;2022-08-01T04:54:04;106.17;;;100.90;;
43114;SDS011;28727;50.068;14.452;2022-08-01T04:56:38;105.35;;;100.07;;
43114;SDS011;28727;50.068;14.452;2022-08-01T04:59:10;104.90;;;99.77;;
43114;SDS011;28727;50.068;14.452;2022-08-01T05:02:02;104.33;;;99.30;;
43114;SDS011;28727;50.068;14.452;2022-08-01T05:04:34;101.90;;;96.93;;
43114;SDS011;28727;50.068;14.452;2022-08-01T05:07:06;103.77;;;98.67;;
43114;SDS011;28727;50.068;14.452;2022-08-01T05:09:40;102.67;;;97.77;;
43114;SDS011;28727;50.068;14.452;2022-08-01T05:12:17;100.80;;;95.90;;
43114;SDS011;28727;50.068;14.452;2022-08-01T05:14:49;101.83;;;96.93;;
43114;SDS011;28727;50.068;14.452;2022-08-01T05:17:21;99.93;;;95.17;;
43114;SDS011;28727;50.068;14.452;2022-08-01T05:19:52;103.30;;;98.27;;
43114;SDS011;28727;50.068;14.452;2022-08-01T05:22:24;100.67;;;95.77;;
43114;SDS011;28727;50.068;14.452;2022-08-01T05:24:58;102.10;;;97.20;;
43114;SDS011;28727;50.068;14.452;2022-08-01T05:27:31;102.20;;;97.27;;
43114;SDS011;28727;50.068;14.452;2022-08-01T05:30:04;107.73;;;102.50;;
43114;SDS011;28727;50.068;14.452;2022-08-01T05:32:39;106.80;;;101.63;;
43114;SDS011;28727;50.068;14.452;2022-08-01T05:35:12;108.03;;;102.67;;
43114;SDS011;28727;50.068;14.452;2022-08-01T05:37:43;105.90;;;100.60;;
43114;SDS011;28727;50.068;14.452;2022-08-01T05:40:15;104.67;;;99.43;;
43114;SDS011;28727;50.068;14.452;2022-08-01T05:42:47;106.10;;;100.90;;
43114;SDS011;28727;50.068;14.452;2022-08-01T05:45:19;106.97;;;101.77;;
43114;SDS011;28727;50.068;14.452;2022-08-01T05:47:51;109.57;;;104.10;;
43114;SDS011;28727;50.068;14.452;2022-08-01T05:50:23;104.43;;;99.23;;
43114;SDS011;28727;50.068;14.452;2022-08-01T05:52:54;110.60;;;105.13;;
43114;SDS011;28727;50.068;14.452;2022-08-01T05:55:26;108.37;;;103.07;;
43114;SDS011;28727;50.068;14.452;2022-08-01T05:57:58;106.57;;;101.30;;
43114;SDS011;28727;50.068;14.452;2022-08-01T06:00:29;103.97;;;98.87;;
43114;SDS011;28727;50.068;14.452;2022-08-01T06:03:01;106.70;;;101.50;;
43114;SDS011;28727;50.068;14.452;2022-08-01T06:05:33;103.27;;;98.13;;
43114;SDS011;28727;50.068;14.452;2022-08-01T06:08:07;108.10;;;102.77;;
43114;SDS011;28727;50.068;14.452;2022-08-01T06:10:39;104.33;;;99.07;;
43114;SDS011;28727;50.068;14.452;2022-08-01T06:13:10;106.33;;;101.13;;
43114;SDS011;28727;50.068;14.452;2022-08-01T06:15:42;106.50;;;101.40;;
43114;SDS011;28727;50.068;14.452;2022-08-01T06:18:14;110.37;;;104.90;;
43114;SDS011;28727;50.068;14.452;2022-08-01T06:20:46;103.17;;;98.20;;
43114;SDS011;28727;50.068;14.452;2022-08-01T06:23:19;107.23;;;102.07;;
43114;SDS011;28727;50.068;14.452;2022-08-01T06:26:03;109.13;;;103.47;;
43114;SDS011;28727;50.068;14.452;2022-08-01T06:28:34;101.90;;;96.93;;
43114;SDS011;28727;50.068;14.452;2022-08-01T06:31:06;105.33;;;100.13;;
43114;SDS011;28727;50.068;14.452;2022-08-01T06:33:38;103.20;;;98.07;;
43114;SDS011;28727;50.068;14.452;2022-08-01T06:36:10;104.13;;;99.13;;
43114;SDS011;28727;50.068;14.452;2022-08-01T06:38:42;108.17;;;102.97;;
43114;SDS011;28727;50.068;14.452;2022-08-01T06:41:13;103.00;;;98.10;;
43114;SDS011;28727;50.068;14.452;2022-08-01T06:43:45;107.83;;;102.67;;
43114;SDS011;28727;50.068;14.452;2022-08-01T06:46:17;107.93;;;102.80;;
43114;SDS011;28727;50.068;14.452;2022-08-01T06:48:48;107.77;;;102.60;;
43114;SDS011;28727;50.068;14.452;2022-08-01T06:51:20;111.00;;;105.70;;
43114;SDS011;28727;50.068;14.452;2022-08-01T06:53:54;115.60;;;110.10;;
43114;SDS011;28727;50.068;14.452;2022-08-01T06:56:26;116.13;;;110.53;;
43114;SDS011;28727;50.068;14.452;2022-08-01T06:58:57;114.30;;;109.00;;
43114;SDS011;28727;50.068;14.452;2022-08-01T07:01:32;114.43;;;109.10;;
43114;SDS011;28727;50.068;14.452;2022-08-01T07:04:08;116.28;;;110.90;;
43114;SDS011;28727;50.068;14.452;2022-08-01T07:06:40;113.23;;;107.97;;
43114;SDS011;28727;50.068;14.452;2022-08-01T07:09:11;115.20;;;109.83;;
43114;SDS011;28727;50.068;14.452;2022-08-01T07:11:45;118.90;;;113.30;;
43114;SDS011;28727;50.068;14.452;2022-08-01T07:14:16;114.57;;;109.27;;
43114;SDS011;28727;50.068;14.452;2022-08-01T07:16:48;120.73;;;115.13;;
43114;SDS011;28727;50.068;14.452;2022-08-01T07:19:23;111.17;;;106.00;;
43114;SDS011;28727;50.068;14.452;2022-08-01T07:21:55;117.10;;;111.53;;
43114;SDS011;28727;50.068;14.452;2022-08-01T07:24:29;120.73;;;114.83;;
43114;SDS011;28727;50.068;14.452;2022-08-01T07:27:01;119.93;;;114.20;;
43114;SDS011;28727;50.068;14.452;2022-08-01T07:29:52;112.33;;;106.83;;
43114;SDS011;28727;50.068;14.452;2022-08-01T07:32:29;112.90;;;107.60;;
43114;SDS011;28727;50.068;14.452;2022-08-01T07:35:02;115.10;;;109.80;;
43114;SDS011;28727;50.068;14.452;2022-08-01T07:37:35;108.15;;;103.05;;
43114;SDS011;28727;50.068;14.452;2022-08-01T07:42:51;111.13;;;105.93;;
43114;SDS011;28727;50.068;14.452;2022-08-01T07:45:22;112.03;;;106.83;;
43114;SDS011;28727;50.068;14.452;2022-08-01T07:47:54;116.90;;;111.47;;
43114;SDS011;28727;50.068;14.452;2022-08-01T07:50:26;113.07;;;107.70;;
43114;SDS011;28727;50.068;14.452;2022-08-01T07:53:00;111.27;;;106.07;;
43114;SDS011;28727;50.068;14.452;2022-08-01T07:55:32;110.37;;;105.23;;
43114;SDS011;28727;50.068;14.452;2022-08-01T07:58:03;111.60;;;106.30;;
43114;SDS011;28727;50.068;14.452;2022-08-01T08:00:35;107.47;;;102.47;;
43114;SDS011;28727;50.068;14.452;2022-08-01T08:03:07;118.17;;;112.43;;
43114;SDS011;28727;50.068;14.452;2022-08-01T08:05:38;109.83;;;104.67;;
43114;SDS011;28727;50.068;14.452;2022-08-01T08:08:30;107.43;;;102.53;;
43114;SDS011;28727;50.068;14.452;2022-08-01T08:11:01;110.10;;;105.00;;
43114;SDS011;28727;50.068;14.452;2022-08-01T08:13:33;113.20;;;107.80;;
43114;SDS011;28727;50.068;14.452;2022-08-01T08:16:08;110.53;;;105.37;;
43114;SDS011;28727;50.068;14.452;2022-08-01T08:18:42;106.70;;;101.70;;
43114;SDS011;28727;50.068;14.452;2022-08-01T08:21:14;110.77;;;105.50;;
43114;SDS011;28727;50.068;14.452;2022-08-01T08:23:46;111.87;;;106.67;;
43114;SDS011;28727;50.068;14.452;2022-08-01T08:26:36;109.17;;;104.10;;
43114;SDS011;28727;50.068;14.452;2022-08-01T08:29:10;107.00;;;102.07;;
43114;SDS011;28727;50.068;14.452;2022-08-01T08:31:42;109.93;;;104.83;;
43114;SDS011;28727;50.068;14.452;2022-08-01T08:34:23;113.53;;;108.23;;
43114;SDS011;28727;50.068;14.452;2022-08-01T08:36:55;106.47;;;101.47;;
43114;SDS011;28727;50.068;14.452;2022-08-01T08:39:29;106.83;;;101.93;;
43114;SDS011;28727;50.068;14.452;2022-08-01T08:42:12;105.53;;;100.63;;
43114;SDS011;28727;50.068;14.452;2022-08-01T08:44:44;109.80;;;104.60;;
43114;SDS011;28727;50.068;14.452;2022-08-01T08:47:16;108.50;;;103.43;;
43114;SDS011;28727;50.068;14.452;2022-08-01T08:49:53;104.73;;;99.83;;
43114;SDS011;28727;50.068;14.452;2022-08-01T08:52:26;107.90;;;102.80;;
43114;SDS011;28727;50.068;14.452;2022-08-01T08:54:59;109.10;;;104.00;;
43114;SDS011;28727;50.068;14.452;2022-08-01T08:57:33;108.53;;;103.40;;
43114;SDS011;28727;50.068;14.452;2022-08-01T09:00:06;102.53;;;97.83;;
43114;SDS011;28727;50.068;14.452;2022-08-01T09:02:42;101.80;;;97.07;;
43114;SDS011;28727;50.068;14.452;2022-08-01T09:05:17;102.63;;;97.90;;
43114;SDS011;28727;50.068;14.452;2022-08-01T09:08:09;107.13;;;102.20;;
43114;SDS011;28727;50.068;14.452;2022-08-01T09:10:40;106.63;;;101.73;;
43114;SDS011;28727;50.068;14.452;2022-08-01T09:13:13;106.00;;;101.10;;
43114;SDS011;28727;50.068;14.452;2022-08-01T09:15:46;108.30;;;103.20;;
43114;SDS011;28727;50.068;14.452;2022-08-01T09:21:18;104.07;;;99.10;;
43114;SDS011;28727;50.068;14.452;2022-08-01T09:23:52;105.37;;;100.53;;
43114;SDS011;28727;50.068;14.452;2022-08-01T09:26:29;107.47;;;102.43;;
43114;SDS011;28727;50.068;14.452;2022-08-01T09:29:06;107.87;;;102.97;;
43114;SDS011;28727;50.068;14.452;2022-08-01T09:32:08;108.33;;;103.27;;
43114;SDS011;28727;50.068;14.452;2022-08-01T09:34:46;106.90;;;101.87;;
43114;SDS011;28727;50.068;14.452;2022-08-01T09:37:18;108.53;;;103.53;;
43114;SDS011;28727;50.068;14.452;2022-08-01T09:40:08;108.03;;;103.00;;
43114;SDS011;28727;50.068;14.452;2022-08-01T09:42:40;107.23;;;102.30;;
43114;SDS011;28727;50.068;14.452;2022-08-01T09:45:30;113.07;;;107.83;;
43114;SDS011;28727;50.068;14.452;2022-08-01T09:48:14;111.17;;;105.97;;
43114;SDS011;28727;50.068;14.452;2022-08-01T09:50:52;111.07;;;105.87;;
43114;SDS011;28727;50.068;14.452;2022-08-01T09:53:44;105.10;;;100.33;;
43114;SDS011;28727;50.068;14.452;2022-08-01T09:56:23;112.47;;;107.27;;
43114;SDS011;28727;50.068;14.452;2022-08-01T09:58:56;108.33;;;103.43;;
43114;SDS011;28727;50.068;14.452;2022-08-01T10:01:43;108.00;;;103.00;;
43114;SDS011;28727;50.068;14.452;2022-08-01T10:04:21;109.13;;;104.13;;
43114;SDS011;28727;50.068;14.452;2022-08-01T10:07:04;110.13;;;105.07;;
43114;SDS011;28727;50.068;14.452;2022-08-01T10:09:39;110.50;;;105.40;;
43114;SDS011;28727;50.068;14.452;2022-08-01T10:12:12;107.80;;;102.80;;
43114;SDS011;28727;50.068;14.452;2022-08-01T10:14:47;105.70;;;100.83;;
43114;SDS011;28727;50.068;14.452;2022-08-01T10:17:21;111.07;;;106.00;;
43114;SDS011;28727;50.068;14.452;2022-08-01T10:20:16;106.53;;;101.57;;
43114;SDS011;28727;50.068;14.452;2022-08-01T10:23:03;109.03;;;103.87;;
43114;SDS011;28727;50.068;14.452;2022-08-01T10:25:39;111.47;;;106.40;;
43114;SDS011;28727;50.068;14.452;2022-08-01T10:28:17;105.33;;;100.57;;
43114;SDS011;28727;50.068;14.452;2022-08-01T10:30:54;108.40;;;103.50;;
43114;SDS011;28727;50.068;14.452;2022-08-01T10:33:30;108.10;;;103.20;;
43114;SDS011;28727;50.068;14.452;2022-08-01T10:36:22;108.67;;;103.70;;
43114;SDS011;28727;50.068;14.452;2022-08-01T10:38:56;112.05;;;106.93;;
43114;SDS011;28727;50.068;14.452;2022-08-01T10:41:28;107.93;;;103.03;;
43114;SDS011;28727;50.068;14.452;2022-08-01T10:44:00;107.77;;;102.73;;
43114;SDS011;28727;50.068;14.452;2022-08-01T10:46:37;109.68;;;104.50;;
43114;SDS011;28727;50.068;14.452;2022-08-01T10:49:14;106.53;;;101.63;;
43114;SDS011;28727;50.068;14.452;2022-08-01T10:51:49;110.13;;;105.03;;
43114;SDS011;28727;50.068;14.452;2022-08-01T10:54:25;110.87;;;105.77;;
43114;SDS011;28727;50.068;14.452;2022-08-01T10:56:59;109.63;;;104.55;;
43114;SDS011;28727;50.068;14.452;2022-08-01T10:59:32;110.67;;;105.43;;
43114;SDS011;28727;50.068;14.452;2022-08-01T11:02:31;107.83;;;102.77;;
43114;SDS011;28727;50.068;14.452;2022-08-01T11:05:09;108.70;;;103.60;;
43114;SDS011;28727;50.068;14.452;2022-08-01T11:07:54;110.27;;;105.07;;
43114;SDS011;28727;50.068;14.452;2022-08-01T11:10:30;111.50;;;106.33;;
43114;SDS011;28727;50.068;14.452;2022-08-01T11:13:10;110.00;;;104.80;;
43114;SDS011;28727;50.068;14.452;2022-08-01T11:15:45;110.13;;;105.03;;
43114;SDS011;28727;50.068;14.452;2022-08-01T11:21:03;111.30;;;106.17;;
43114;SDS011;28727;50.068;14.452;2022-08-01T11:23:55;107.57;;;102.47;;
43114;SDS011;28727;50.068;14.452;2022-08-01T11:26:28;110.97;;;105.88;;
43114;SDS011;28727;50.068;14.452;2022-08-01T11:29:10;113.77;;;108.57;;
43114;SDS011;28727;50.068;14.452;2022-08-01T11:31:52;108.47;;;103.47;;
43114;SDS011;28727;50.068;14.452;2022-08-01T11:34:51;110.00;;;105.00;;
43114;SDS011;28727;50.068;14.452;2022-08-01T11:37:27;107.07;;;101.97;;
43114;SDS011;28727;50.068;14.452;2022-08-01T11:40:14;112.73;;;107.37;;
43114;SDS011;28727;50.068;14.452;2022-08-01T11:43:16;110.87;;;105.67;;
43114;SDS011;28727;50.068;14.452;2022-08-01T11:48:26;111.80;;;106.60;;
43114;SDS011;28727;50.068;14.452;2022-08-01T11:51:00;112.50;;;107.23;;
43114;SDS011;28727;50.068;14.452;2022-08-01T11:53:33;109.07;;;103.97;;
43114;SDS011;28727;50.068;14.452;2022-08-01T11:56:06;114.93;;;109.35;;
43114;SDS011;28727;50.068;14.452;2022-08-01T11:58:38;114.07;;;108.70;;
43114;SDS011;28727;50.068;14.452;2022-08-01T12:01:16;111.87;;;106.70;;
43114;SDS011;28727;50.068;14.452;2022-08-01T12:03:55;111.82;;;106.55;;
43114;SDS011;28727;50.068;14.452;2022-08-01T12:06:28;110.60;;;105.40;;
43114;SDS011;28727;50.068;14.452;2022-08-01T12:09:16;112.50;;;107.20;;
43114;SDS011;28727;50.068;14.452;2022-08-01T12:11:52;111.07;;;105.93;;
43114;SDS011;28727;50.068;14.452;2022-08-01T12:14:29;117.13;;;111.57;;
43114;SDS011;28727;50.068;14.452;2022-08-01T12:17:06;117.53;;;112.03;;
43114;SDS011;28727;50.068;14.452;2022-08-01T12:19:38;113.13;;;107.80;;
43114;SDS011;28727;50.068;14.452;2022-08-01T12:22:12;108.13;;;103.03;;
43114;SDS011;28727;50.068;14.452;2022-08-01T12:24:47;109.27;;;104.20;;
43114;SDS011;28727;50.068;14.452;2022-08-01T12:27:29;112.90;;;106.73;;
43114;SDS011;28727;50.068;14.452;2022-08-01T12:30:03;107.93;;;103.00;;
43114;SDS011;28727;50.068;14.452;2022-08-01T12:32:38;114.17;;;108.80;;
43114;SDS011;28727;50.068;14.452;2022-08-01T12:35:18;111.72;;;106.43;;
43114;SDS011;28727;50.068;14.452;2022-08-01T12:38:04;112.03;;;106.77;;
43114;SDS011;28727;50.068;14.452;2022-08-01T12:40:46;112.20;;;106.93;;
43114;SDS011;28727;50.068;14.452;2022-08-01T12:43:23;116.63;;;111.07;;
43114;SDS011;28727;50.068;14.452;2022-08-01T12:45:59;110.40;;;105.23;;
43114;SDS011;28727;50.068;14.452;2022-08-01T12:48:33;113.70;;;108.20;;
43114;SDS011;28727;50.068;14.452;2022-08-01T12:51:04;113.67;;;108.27;;
43114;SDS011;28727;50.068;14.452;2022-08-01T12:53:40;112.53;;;107.33;;
43114;SDS011;28727;50.068;14.452;2022-08-01T12:56:12;109.60;;;104.60;;
43114;SDS011;28727;50.068;14.452;2022-08-01T12:58:43;111.73;;;106.63;;
43114;SDS011;28727;50.068;14.452;2022-08-01T13:01:15;107.77;;;102.77;;
43114;SDS011;28727;50.068;14.452;2022-08-01T13:03:57;109.60;;;104.60;;
43114;SDS011;28727;50.068;14.452;2022-08-01T13:06:30;110.70;;;105.67;;
43114;SDS011;28727;50.068;14.452;2022-08-01T13:09:07;110.80;;;105.60;;
43114;SDS011;28727;50.068;14.452;2022-08-01T13:11:44;114.60;;;107.90;;
43114;SDS011;28727;50.068;14.452;2022-08-01T13:14:34;108.70;;;103.70;;
43114;SDS011;28727;50.068;14.452;2022-08-01T13:17:12;108.97;;;103.97;;
43114;SDS011;28727;50.068;14.452;2022-08-01T13:20:01;107.90;;;102.80;;
43114;SDS011;28727;50.068;14.452;2022-08-01T13:22:36;112.33;;;107.17;;
43114;SDS011;28727;50.068;14.452;2022-08-01T13:25:10;107.47;;;102.63;;
43114;SDS011;28727;50.068;14.452;2022-08-01T13:27:45;108.43;;;103.43;;
43114;SDS011;28727;50.068;14.452;2022-08-01T13:30:24;109.00;;;103.67;;
43114;SDS011;28727;50.068;14.452;2022-08-01T13:32:59;112.53;;;107.17;;
43114;SDS011;28727;50.068;14.452;2022-08-01T13:35:31;109.80;;;104.60;;
43114;SDS011;28727;50.068;14.452;2022-08-01T13:38:03;110.50;;;105.30;;
43114;SDS011;28727;50.068;14.452;2022-08-01T13:40:34;108.47;;;103.50;;
43114;SDS011;28727;50.068;14.452;2022-08-01T13:43:06;117.23;;;111.63;;
43114;SDS011;28727;50.068;14.452;2022-08-01T13:45:38;115.07;;;109.70;;
43114;SDS011;28727;50.068;14.452;2022-08-01T13:48:15;114.87;;;109.43;;
43114;SDS011;28727;50.068;14.452;2022-08-01T13:50:49;110.30;;;105.10;;
43114;SDS011;28727;50.068;14.452;2022-08-01T13:53:37;118.30;;;112.73;;
43114;SDS011;28727;50.068;14.452;2022-08-01T13:56:09;111.17;;;106.07;;
43114;SDS011;28727;50.068;14.452;2022-08-01T13:58:45;110.93;;;105.77;;
43114;SDS011;28727;50.068;14.452;2022-08-01T14:01:17;113.70;;;108.33;;
43114;SDS011;28727;50.068;14.452;2022-08-01T14:03:48;111.03;;;105.97;;
43114;SDS011;28727;50.068;14.452;2022-08-01T14:06:22;111.00;;;105.82;;
43114;SDS011;28727;50.068;14.452;2022-08-01T14:08:53;113.17;;;107.97;;
43114;SDS011;28727;50.068;14.452;2022-08-01T14:11:25;115.13;;;109.73;;
43114;SDS011;28727;50.068;14.452;2022-08-01T14:14:07;116.57;;;111.13;;
43114;SDS011;28727;50.068;14.452;2022-08-01T14:16:39;113.70;;;108.50;;
43114;SDS011;28727;50.068;14.452;2022-08-01T14:19:12;113.60;;;108.37;;
43114;SDS011;28727;50.068;14.452;2022-08-01T14:21:44;108.33;;;103.30;;
43114;SDS011;28727;50.068;14.452;2022-08-01T14:24:16;109.57;;;104.43;;
43114;SDS011;28727;50.068;14.452;2022-08-01T14:26:48;111.70;;;106.50;;
43114;SDS011;28727;50.068;14.452;2022-08-01T14:29:20;109.93;;;104.83;;
43114;SDS011;28727;50.068;14.452;2022-08-01T14:31:51;112.93;;;107.60;;
43114;SDS011;28727;50.068;14.452;2022-08-01T14:34:23;113.83;;;108.17;;
43114;SDS011;28727;50.068;14.452;2022-08-01T14:36:55;111.23;;;105.87;;
43114;SDS011;28727;50.068;14.452;2022-08-01T14:39:27;107.50;;;102.57;;
43114;SDS011;28727;50.068;14.452;2022-08-01T14:42:00;112.50;;;107.30;;
43114;SDS011;28727;50.068;14.452;2022-08-01T14:44:31;108.00;;;103.07;;
43114;SDS011;28727;50.068;14.452;2022-08-01T14:47:03;109.20;;;104.00;;
43114;SDS011;28727;50.068;14.452;2022-08-01T14:49:52;115.77;;;110.33;;
43114;SDS011;28727;50.068;14.452;2022-08-01T14:52:24;113.50;;;108.10;;
43114;SDS011;28727;50.068;14.452;2022-08-01T14:54:55;110.77;;;105.57;;
43114;SDS011;28727;50.068;14.452;2022-08-01T14:57:27;110.07;;;104.97;;
43114;SDS011;28727;50.068;14.452;2022-08-01T14:59:59;106.37;;;101.37;;
43114;SDS011;28727;50.068;14.452;2022-08-01T15:02:31;109.80;;;104.63;;
43114;SDS011;28727;50.068;14.452;2022-08-01T15:05:03;109.13;;;103.93;;
43114;SDS011;28727;50.068;14.452;2022-08-01T15:07:35;115.23;;;109.60;;
43114;SDS011;28727;50.068;14.452;2022-08-01T15:10:22;110.90;;;105.47;;
43114;SDS011;28727;50.068;14.452;2022-08-01T15:12:54;112.87;;;107.33;;